ENHV/HVG METAR and TAF weather

Enter ICAO airport designator
Station Type Date Time Source
ENHV METAR 2021/07/27 19:50 UTC NOAA

ENHV 271950Z 04006KT 2000 VCFG OVC002 07/07 Q1017


Station Type Date Time Source
ENHV Decoded METAR 2021/07/27 19:50 UTC NOAA

Honningsvag / Valan, Norway (ENHV) 71-01N 025-59E 14M
Jul 27, 2021 - 03:50 PM EDT / 2021.07.27 1950 UTC
Wind: from the NE (040 degrees) at 7 MPH (6 KT):0
Visibility: 1 mile(s):0
Sky conditions: overcast
Weather: fog in the vicinity
Temperature: 44 F (7 C)
Dew Point: 44 F (7 C)
Relative Humidity: 100%
Pressure (altimeter): 30.03 in. Hg (1017 hPa)
ob: ENHV 271950Z 04006KT 2000 VCFG OVC002 07/07 Q1017
cycle: 20

Station Type Date Time Source
ENHV TAF UTC NOAA

Error!

Example: see airport list